sensor_id;sensor_type;location;lat;lon;timestamp;P1;durP1;ratioP1;P2;durP2;ratioP2
4021;SDS011;2025;48.260;16.432;2022-12-18T08:58:36;29.73;;;11.00;;
4021;SDS011;2025;48.260;16.432;2022-12-18T09:01:04;21.23;;;9.13;;
4021;SDS011;2025;48.260;16.432;2022-12-18T09:03:34;25.70;;;11.50;;
4021;SDS011;2025;48.260;16.432;2022-12-18T09:06:00;27.35;;;12.68;;
4021;SDS011;2025;48.260;16.432;2022-12-18T09:08:28;31.77;;;11.98;;
4021;SDS011;2025;48.260;16.432;2022-12-18T09:10:55;24.67;;;9.43;;
4021;SDS011;2025;48.260;16.432;2022-12-18T09:13:24;24.05;;;10.80;;
4021;SDS011;2025;48.260;16.432;2022-12-18T09:15:52;24.25;;;9.63;;
4021;SDS011;2025;48.260;16.432;2022-12-18T09:18:20;27.75;;;9.52;;
4021;SDS011;2025;48.260;16.432;2022-12-18T09:20:48;26.25;;;10.32;;
4021;SDS011;2025;48.260;16.432;2022-12-18T09:23:17;26.45;;;9.55;;
4021;SDS011;2025;48.260;16.432;2022-12-18T09:25:44;26.25;;;9.63;;
4021;SDS011;2025;48.260;16.432;2022-12-18T09:28:16;33.05;;;12.43;;
4021;SDS011;2025;48.260;16.432;2022-12-18T09:30:46;25.77;;;12.80;;
4021;SDS011;2025;48.260;16.432;2022-12-18T09:33:14;24.90;;;10.50;;
4021;SDS011;2025;48.260;16.432;2022-12-18T09:38:27;19.70;;;8.05;;
4021;SDS011;2025;48.260;16.432;2022-12-18T09:40:55;23.77;;;9.32;;
4021;SDS011;2025;48.260;16.432;2022-12-18T09:43:26;18.83;;;9.57;;
4021;SDS011;2025;48.260;16.432;2022-12-18T09:46:03;24.67;;;9.15;;
4021;SDS011;2025;48.260;16.432;2022-12-18T09:48:34;23.77;;;12.80;;
4021;SDS011;2025;48.260;16.432;2022-12-18T09:51:05;23.83;;;9.10;;
4021;SDS011;2025;48.260;16.432;2022-12-18T09:53:39;24.80;;;8.75;;
4021;SDS011;2025;48.260;16.432;2022-12-18T09:56:10;24.20;;;9.00;;
4021;SDS011;2025;48.260;16.432;2022-12-18T09:58:43;24.70;;;8.32;;
4021;SDS011;2025;48.260;16.432;2022-12-18T10:01:20;33.17;;;12.00;;
4021;SDS011;2025;48.260;16.432;2022-12-18T10:03:49;23.20;;;8.80;;
4021;SDS011;2025;48.260;16.432;2022-12-18T10:06:18;28.08;;;12.50;;
4021;SDS011;2025;48.260;16.432;2022-12-18T10:08:51;21.48;;;7.88;;
4021;SDS011;2025;48.260;16.432;2022-12-18T10:11:26;25.17;;;9.73;;
4021;SDS011;2025;48.260;16.432;2022-12-18T10:14:01;24.67;;;9.23;;
4021;SDS011;2025;48.260;16.432;2022-12-18T10:16:38;25.13;;;10.50;;
4021;SDS011;2025;48.260;16.432;2022-12-18T10:19:18;21.98;;;9.32;;
4021;SDS011;2025;48.260;16.432;2022-12-18T10:21:55;24.10;;;11.32;;
4021;SDS011;2025;48.260;16.432;2022-12-18T10:24:31;18.15;;;8.68;;
4021;SDS011;2025;48.260;16.432;2022-12-18T10:27:09;20.95;;;7.65;;
4021;SDS011;2025;48.260;16.432;2022-12-18T10:29:40;23.17;;;6.82;;
4021;SDS011;2025;48.260;16.432;2022-12-18T10:32:10;22.88;;;8.93;;
4021;SDS011;2025;48.260;16.432;2022-12-18T10:34:44;21.52;;;7.45;;
4021;SDS011;2025;48.260;16.432;2022-12-18T10:37:12;22.77;;;8.77;;
4021;SDS011;2025;48.260;16.432;2022-12-18T10:39:43;24.58;;;10.40;;
4021;SDS011;2025;48.260;16.432;2022-12-18T10:44:38;23.25;;;8.75;;
4021;SDS011;2025;48.260;16.432;2022-12-18T10:47:06;22.85;;;8.75;;
4021;SDS011;2025;48.260;16.432;2022-12-18T10:49:47;19.48;;;10.18;;
4021;SDS011;2025;48.260;16.432;2022-12-18T10:52:18;23.45;;;7.93;;
4021;SDS011;2025;48.260;16.432;2022-12-18T10:54:48;24.15;;;9.90;;
4021;SDS011;2025;48.260;16.432;2022-12-18T10:57:20;20.45;;;8.00;;
4021;SDS011;2025;48.260;16.432;2022-12-18T10:59:58;24.17;;;8.05;;
4021;SDS011;2025;48.260;16.432;2022-12-18T11:02:33;30.42;;;9.00;;
4021;SDS011;2025;48.260;16.432;2022-12-18T11:05:01;21.63;;;7.20;;
4021;SDS011;2025;48.260;16.432;2022-12-18T11:07:44;19.65;;;8.60;;
4021;SDS011;2025;48.260;16.432;2022-12-18T11:10:15;26.40;;;9.77;;
4021;SDS011;2025;48.260;16.432;2022-12-18T11:12:43;20.98;;;9.45;;
4021;SDS011;2025;48.260;16.432;2022-12-18T11:15:13;21.88;;;7.53;;
4021;SDS011;2025;48.260;16.432;2022-12-18T11:17:44;22.65;;;7.55;;
4021;SDS011;2025;48.260;16.432;2022-12-18T11:20:27;18.98;;;7.53;;
4021;SDS011;2025;48.260;16.432;2022-12-18T11:22:58;20.90;;;8.07;;
4021;SDS011;2025;48.260;16.432;2022-12-18T11:25:30;24.15;;;8.45;;
4021;SDS011;2025;48.260;16.432;2022-12-18T11:27:59;22.02;;;7.97;;
4021;SDS011;2025;48.260;16.432;2022-12-18T11:30:27;23.17;;;8.35;;
4021;SDS011;2025;48.260;16.432;2022-12-18T11:32:58;19.88;;;7.75;;
4021;SDS011;2025;48.260;16.432;2022-12-18T11:35:34;22.83;;;8.20;;
4021;SDS011;2025;48.260;16.432;2022-12-18T11:38:10;18.80;;;7.70;;
4021;SDS011;2025;48.260;16.432;2022-12-18T11:40:45;25.45;;;9.25;;
4021;SDS011;2025;48.260;16.432;2022-12-18T11:43:17;21.60;;;7.32;;
4021;SDS011;2025;48.260;16.432;2022-12-18T11:45:52;18.38;;;10.45;;
4021;SDS011;2025;48.260;16.432;2022-12-18T11:48:25;19.08;;;8.32;;
4021;SDS011;2025;48.260;16.432;2022-12-18T11:50:56;18.48;;;8.20;;
4021;SDS011;2025;48.260;16.432;2022-12-18T11:53:26;22.27;;;8.65;;
4021;SDS011;2025;48.260;16.432;2022-12-18T11:56:00;22.80;;;8.73;;
4021;SDS011;2025;48.260;16.432;2022-12-18T11:58:45;18.90;;;7.03;;
4021;SDS011;2025;48.260;16.432;2022-12-18T12:01:23;22.00;;;9.10;;
4021;SDS011;2025;48.260;16.432;2022-12-18T12:04:11;21.80;;;8.48;;
4021;SDS011;2025;48.260;16.432;2022-12-18T12:06:50;21.58;;;8.77;;
4021;SDS011;2025;48.260;16.432;2022-12-18T12:09:26;28.27;;;13.60;;
4021;SDS011;2025;48.260;16.432;2022-12-18T12:12:04;22.63;;;9.45;;
4021;SDS011;2025;48.260;16.432;2022-12-18T12:14:46;22.60;;;9.40;;
4021;SDS011;2025;48.260;16.432;2022-12-18T12:17:23;22.20;;;6.82;;
4021;SDS011;2025;48.260;16.432;2022-12-18T12:20:04;20.60;;;7.93;;
4021;SDS011;2025;48.260;16.432;2022-12-18T12:22:40;18.85;;;6.95;;
4021;SDS011;2025;48.260;16.432;2022-12-18T12:25:21;23.73;;;9.85;;
4021;SDS011;2025;48.260;16.432;2022-12-18T12:28:02;25.42;;;9.43;;
4021;SDS011;2025;48.260;16.432;2022-12-18T12:30:41;20.85;;;8.07;;
4021;SDS011;2025;48.260;16.432;2022-12-18T12:33:17;26.52;;;9.15;;
4021;SDS011;2025;48.260;16.432;2022-12-18T12:35:59;26.92;;;9.50;;
4021;SDS011;2025;48.260;16.432;2022-12-18T12:38:36;20.05;;;7.05;;
4021;SDS011;2025;48.260;16.432;2022-12-18T12:41:12;22.55;;;9.10;;
4021;SDS011;2025;48.260;16.432;2022-12-18T12:43:57;18.40;;;8.02;;
4021;SDS011;2025;48.260;16.432;2022-12-18T12:46:28;21.52;;;9.77;;
4021;SDS011;2025;48.260;16.432;2022-12-18T12:48:59;24.23;;;8.82;;
4021;SDS011;2025;48.260;16.432;2022-12-18T12:51:32;25.23;;;9.68;;
4021;SDS011;2025;48.260;16.432;2022-12-18T12:54:01;28.85;;;10.13;;
4021;SDS011;2025;48.260;16.432;2022-12-18T12:56:35;19.90;;;8.15;;
4021;SDS011;2025;48.260;16.432;2022-12-18T12:59:08;28.83;;;9.77;;
4021;SDS011;2025;48.260;16.432;2022-12-18T13:01:40;25.33;;;9.68;;
4021;SDS011;2025;48.260;16.432;2022-12-18T13:04:19;21.38;;;8.80;;
4021;SDS011;2025;48.260;16.432;2022-12-18T13:06:53;21.38;;;7.95;;
4021;SDS011;2025;48.260;16.432;2022-12-18T13:09:29;30.27;;;10.70;;
4021;SDS011;2025;48.260;16.432;2022-12-18T13:12:02;27.73;;;10.80;;
4021;SDS011;2025;48.260;16.432;2022-12-18T13:14:48;19.33;;;7.13;;
4021;SDS011;2025;48.260;16.432;2022-12-18T13:17:16;22.33;;;9.70;;
4021;SDS011;2025;48.260;16.432;2022-12-18T13:20:08;25.52;;;9.48;;
4021;SDS011;2025;48.260;16.432;2022-12-18T13:22:40;25.45;;;9.93;;
4021;SDS011;2025;48.260;16.432;2022-12-18T13:25:31;25.02;;;7.88;;
4021;SDS011;2025;48.260;16.432;2022-12-18T13:28:06;24.40;;;8.63;;
4021;SDS011;2025;48.260;16.432;2022-12-18T13:33:36;27.40;;;11.43;;
4021;SDS011;2025;48.260;16.432;2022-12-18T13:36:28;25.27;;;8.13;;
4021;SDS011;2025;48.260;16.432;2022-12-18T13:41:40;22.48;;;8.18;;
4021;SDS011;2025;48.260;16.432;2022-12-18T13:44:11;25.90;;;11.65;;
4021;SDS011;2025;48.260;16.432;2022-12-18T13:46:43;24.65;;;8.52;;
4021;SDS011;2025;48.260;16.432;2022-12-18T13:51:47;24.02;;;9.50;;
4021;SDS011;2025;48.260;16.432;2022-12-18T13:54:17;21.38;;;8.13;;
4021;SDS011;2025;48.260;16.432;2022-12-18T13:56:48;22.17;;;8.68;;
4021;SDS011;2025;48.260;16.432;2022-12-18T13:59:17;26.73;;;10.07;;
4021;SDS011;2025;48.260;16.432;2022-12-18T14:01:46;27.13;;;11.38;;
4021;SDS011;2025;48.260;16.432;2022-12-18T14:04:19;25.08;;;9.68;;
4021;SDS011;2025;48.260;16.432;2022-12-18T14:06:55;26.40;;;9.82;;
4021;SDS011;2025;48.260;16.432;2022-12-18T14:09:26;31.02;;;10.88;;
4021;SDS011;2025;48.260;16.432;2022-12-18T14:11:56;22.70;;;8.13;;
4021;SDS011;2025;48.260;16.432;2022-12-18T14:14:38;25.80;;;10.70;;
4021;SDS011;2025;48.260;16.432;2022-12-18T14:17:09;26.65;;;9.90;;
4021;SDS011;2025;48.260;16.432;2022-12-18T14:19:37;29.30;;;10.85;;
4021;SDS011;2025;48.260;16.432;2022-12-18T14:22:12;26.95;;;8.68;;
4021;SDS011;2025;48.260;16.432;2022-12-18T14:24:43;28.88;;;10.77;;
4021;SDS011;2025;48.260;16.432;2022-12-18T14:27:24;25.10;;;11.02;;
4021;SDS011;2025;48.260;16.432;2022-12-18T14:29:52;24.80;;;9.38;;
4021;SDS011;2025;48.260;16.432;2022-12-18T14:32:20;31.50;;;11.45;;
4021;SDS011;2025;48.260;16.432;2022-12-18T14:34:49;31.05;;;10.02;;
4021;SDS011;2025;48.260;16.432;2022-12-18T14:37:20;29.55;;;10.88;;
4021;SDS011;2025;48.260;16.432;2022-12-18T14:39:52;33.97;;;11.77;;
4021;SDS011;2025;48.260;16.432;2022-12-18T14:42:23;28.10;;;11.38;;
4021;SDS011;2025;48.260;16.432;2022-12-18T14:48:08;28.33;;;9.73;;
4021;SDS011;2025;48.260;16.432;2022-12-18T14:53:17;31.80;;;10.93;;
4021;SDS011;2025;48.260;16.432;2022-12-18T14:55:46;36.15;;;11.40;;
4021;SDS011;2025;48.260;16.432;2022-12-18T14:58:16;28.67;;;11.05;;
4021;SDS011;2025;48.260;16.432;2022-12-18T15:00:44;33.00;;;12.38;;
4021;SDS011;2025;48.260;16.432;2022-12-18T15:05:43;26.63;;;8.93;;
4021;SDS011;2025;48.260;16.432;2022-12-18T15:08:24;26.63;;;11.18;;
4021;SDS011;2025;48.260;16.432;2022-12-18T15:10:55;30.48;;;10.57;;
4021;SDS011;2025;48.260;16.432;2022-12-18T15:13:24;28.98;;;10.07;;
4021;SDS011;2025;48.260;16.432;2022-12-18T15:15:51;24.38;;;9.70;;
4021;SDS011;2025;48.260;16.432;2022-12-18T15:18:20;25.92;;;10.00;;
4021;SDS011;2025;48.260;16.432;2022-12-18T15:20:53;30.08;;;12.75;;
4021;SDS011;2025;48.260;16.432;2022-12-18T15:23:22;29.60;;;10.88;;
4021;SDS011;2025;48.260;16.432;2022-12-18T15:25:57;28.55;;;11.05;;
4021;SDS011;2025;48.260;16.432;2022-12-18T15:28:27;30.13;;;9.75;;
4021;SDS011;2025;48.260;16.432;2022-12-18T15:31:06;32.88;;;10.88;;
4021;SDS011;2025;48.260;16.432;2022-12-18T15:34:01;31.67;;;10.65;;
4021;SDS011;2025;48.260;16.432;2022-12-18T15:36:37;34.25;;;11.60;;
4021;SDS011;2025;48.260;16.432;2022-12-18T15:41:31;29.83;;;12.30;;
4021;SDS011;2025;48.260;16.432;2022-12-18T15:44:14;40.42;;;12.38;;
4021;SDS011;2025;48.260;16.432;2022-12-18T15:46:47;27.42;;;9.55;;
4021;SDS011;2025;48.260;16.432;2022-12-18T15:51:41;32.22;;;10.77;;
4021;SDS011;2025;48.260;16.432;2022-12-18T15:54:10;23.65;;;9.32;;
4021;SDS011;2025;48.260;16.432;2022-12-18T15:56:40;25.63;;;9.60;;
4021;SDS011;2025;48.260;16.432;2022-12-18T15:59:26;39.53;;;11.85;;
4021;SDS011;2025;48.260;16.432;2022-12-18T16:01:53;29.23;;;11.63;;
4021;SDS011;2025;48.260;16.432;2022-12-18T16:04:21;39.70;;;12.65;;
4021;SDS011;2025;48.260;16.432;2022-12-18T16:06:49;34.67;;;13.48;;
4021;SDS011;2025;48.260;16.432;2022-12-18T16:09:17;32.83;;;12.50;;
4021;SDS011;2025;48.260;16.432;2022-12-18T16:11:44;34.20;;;12.30;;
4021;SDS011;2025;48.260;16.432;2022-12-18T16:14:15;27.20;;;11.35;;
4021;SDS011;2025;48.260;16.432;2022-12-18T16:16:45;34.13;;;11.27;;
4021;SDS011;2025;48.260;16.432;2022-12-18T16:19:13;25.25;;;9.18;;
4021;SDS011;2025;48.260;16.432;2022-12-18T16:21:41;26.38;;;9.88;;
4021;SDS011;2025;48.260;16.432;2022-12-18T16:24:10;30.13;;;10.73;;
4021;SDS011;2025;48.260;16.432;2022-12-18T16:26:41;37.47;;;13.98;;
4021;SDS011;2025;48.260;16.432;2022-12-18T16:29:08;28.27;;;10.45;;
4021;SDS011;2025;48.260;16.432;2022-12-18T16:31:35;30.90;;;10.40;;
4021;SDS011;2025;48.260;16.432;2022-12-18T16:36:46;27.17;;;9.07;;
4021;SDS011;2025;48.260;16.432;2022-12-18T16:41:40;26.55;;;10.45;;
4021;SDS011;2025;48.260;16.432;2022-12-18T16:44:07;27.23;;;11.02;;
4021;SDS011;2025;48.260;16.432;2022-12-18T16:46:35;35.95;;;11.23;;
4021;SDS011;2025;48.260;16.432;2022-12-18T16:49:02;30.20;;;10.90;;
4021;SDS011;2025;48.260;16.432;2022-12-18T16:51:33;34.30;;;11.73;;
4021;SDS011;2025;48.260;16.432;2022-12-18T16:54:00;30.85;;;12.00;;
4021;SDS011;2025;48.260;16.432;2022-12-18T16:58:55;32.30;;;11.18;;
4021;SDS011;2025;48.260;16.432;2022-12-18T17:01:23;29.50;;;10.02;;
4021;SDS011;2025;48.260;16.432;2022-12-18T17:03:51;29.58;;;10.75;;
4021;SDS011;2025;48.260;16.432;2022-12-18T17:06:19;32.05;;;11.13;;
4021;SDS011;2025;48.260;16.432;2022-12-18T17:08:52;25.45;;;9.75;;
4021;SDS011;2025;48.260;16.432;2022-12-18T17:11:20;26.20;;;12.13;;
4021;SDS011;2025;48.260;16.432;2022-12-18T17:16:14;28.90;;;12.60;;
4021;SDS011;2025;48.260;16.432;2022-12-18T17:18:41;32.88;;;12.38;;
4021;SDS011;2025;48.260;16.432;2022-12-18T17:21:09;30.35;;;11.88;;
4021;SDS011;2025;48.260;16.432;2022-12-18T17:23:38;33.20;;;13.25;;
4021;SDS011;2025;48.260;16.432;2022-12-18T17:26:07;30.80;;;13.60;;
4021;SDS011;2025;48.260;16.432;2022-12-18T17:28:36;31.92;;;11.30;;
4021;SDS011;2025;48.260;16.432;2022-12-18T17:31:09;32.15;;;13.25;;
4021;SDS011;2025;48.260;16.432;2022-12-18T17:33:37;27.38;;;11.90;;
4021;SDS011;2025;48.260;16.432;2022-12-18T17:38:31;29.00;;;12.13;;
4021;SDS011;2025;48.260;16.432;2022-12-18T17:40:59;30.33;;;13.52;;
4021;SDS011;2025;48.260;16.432;2022-12-18T17:43:28;31.10;;;11.48;;
4021;SDS011;2025;48.260;16.432;2022-12-18T17:45:56;29.40;;;10.07;;
4021;SDS011;2025;48.260;16.432;2022-12-18T17:48:27;32.85;;;12.95;;
4021;SDS011;2025;48.260;16.432;2022-12-18T17:50:55;28.77;;;11.45;;
4021;SDS011;2025;48.260;16.432;2022-12-18T17:53:26;29.33;;;11.70;;
4021;SDS011;2025;48.260;16.432;2022-12-18T17:55:54;29.73;;;11.43;;
4021;SDS011;2025;48.260;16.432;2022-12-18T17:58:21;35.33;;;11.40;;
4021;SDS011;2025;48.260;16.432;2022-12-18T18:00:50;31.67;;;12.95;;
4021;SDS011;2025;48.260;16.432;2022-12-18T18:03:18;30.58;;;13.25;;
4021;SDS011;2025;48.260;16.432;2022-12-18T18:05:45;29.10;;;11.50;;
4021;SDS011;2025;48.260;16.432;2022-12-18T18:08:12;34.50;;;11.98;;
4021;SDS011;2025;48.260;16.432;2022-12-18T18:10:39;29.35;;;11.10;;
4021;SDS011;2025;48.260;16.432;2022-12-18T18:13:08;26.80;;;14.02;;
4021;SDS011;2025;48.260;16.432;2022-12-18T18:16:03;31.92;;;11.90;;
4021;SDS011;2025;48.260;16.432;2022-12-18T18:18:31;33.50;;;12.05;;
4021;SDS011;2025;48.260;16.432;2022-12-18T18:23:29;34.33;;;11.30;;
4021;SDS011;2025;48.260;16.432;2022-12-18T18:26:01;33.13;;;11.90;;
4021;SDS011;2025;48.260;16.432;2022-12-18T18:28:28;35.50;;;14.50;;
4021;SDS011;2025;48.260;16.432;2022-12-18T18:30:55;28.70;;;12.30;;
4021;SDS011;2025;48.260;16.432;2022-12-18T18:33:23;31.17;;;10.48;;
4021;SDS011;2025;48.260;16.432;2022-12-18T18:35:51;30.38;;;12.75;;
4021;SDS011;2025;48.260;16.432;2022-12-18T18:38:18;31.83;;;12.95;;
4021;SDS011;2025;48.260;16.432;2022-12-18T18:40:44;38.35;;;15.65;;
4021;SDS011;2025;48.260;16.432;2022-12-18T18:43:11;35.58;;;13.35;;
4021;SDS011;2025;48.260;16.432;2022-12-18T18:45:38;29.75;;;10.50;;
4021;SDS011;2025;48.260;16.432;2022-12-18T18:48:05;31.52;;;11.55;;
4021;SDS011;2025;48.260;16.432;2022-12-18T18:50:34;33.80;;;13.90;;
4021;SDS011;2025;48.260;16.432;2022-12-18T18:53:01;37.88;;;13.15;;
4021;SDS011;2025;48.260;16.432;2022-12-18T18:57:54;24.42;;;9.95;;
4021;SDS011;2025;48.260;16.432;2022-12-18T19:02:48;29.15;;;11.05;;
4021;SDS011;2025;48.260;16.432;2022-12-18T19:05:15;25.48;;;9.63;;
4021;SDS011;2025;48.260;16.432;2022-12-18T19:10:10;27.92;;;11.98;;
4021;SDS011;2025;48.260;16.432;2022-12-18T19:12:37;26.17;;;10.45;;
4021;SDS011;2025;48.260;16.432;2022-12-18T19:15:22;30.20;;;11.35;;
4021;SDS011;2025;48.260;16.432;2022-12-18T19:17:49;30.13;;;11.65;;
4021;SDS011;2025;48.260;16.432;2022-12-18T19:22:44;23.98;;;10.35;;
4021;SDS011;2025;48.260;16.432;2022-12-18T19:25:11;31.50;;;12.10;;
4021;SDS011;2025;48.260;16.432;2022-12-18T19:27:38;34.08;;;14.20;;
4021;SDS011;2025;48.260;16.432;2022-12-18T19:32:33;35.60;;;12.82;;
4021;SDS011;2025;48.260;16.432;2022-12-18T19:35:00;37.70;;;12.65;;
4021;SDS011;2025;48.260;16.432;2022-12-18T19:37:27;31.85;;;12.40;;
4021;SDS011;2025;48.260;16.432;2022-12-18T19:42:22;31.48;;;12.75;;
4021;SDS011;2025;48.260;16.432;2022-12-18T19:44:49;33.30;;;12.02;;
4021;SDS011;2025;48.260;16.432;2022-12-18T19:47:16;27.02;;;13.02;;
4021;SDS011;2025;48.260;16.432;2022-12-18T19:49:43;29.60;;;11.32;;
4021;SDS011;2025;48.260;16.432;2022-12-18T19:52:10;32.40;;;13.40;;
4021;SDS011;2025;48.260;16.432;2022-12-18T19:54:38;40.63;;;15.50;;
4021;SDS011;2025;48.260;16.432;2022-12-18T19:57:07;33.88;;;15.50;;
4021;SDS011;2025;48.260;16.432;2022-12-18T19:59:35;37.88;;;14.18;;
4021;SDS011;2025;48.260;16.432;2022-12-18T20:02:03;34.92;;;12.57;;
4021;SDS011;2025;48.260;16.432;2022-12-18T20:06:56;33.35;;;13.45;;
4021;SDS011;2025;48.260;16.432;2022-12-18T20:09:23;37.53;;;14.32;;
4021;SDS011;2025;48.260;16.432;2022-12-18T20:11:50;30.52;;;10.70;;
4021;SDS011;2025;48.260;16.432;2022-12-18T20:14:19;35.00;;;13.45;;
4021;SDS011;2025;48.260;16.432;2022-12-18T20:16:46;32.97;;;13.25;;
4021;SDS011;2025;48.260;16.432;2022-12-18T20:19:13;28.05;;;11.95;;
4021;SDS011;2025;48.260;16.432;2022-12-18T20:21:40;35.13;;;12.70;;
4021;SDS011;2025;48.260;16.432;2022-12-18T20:24:07;37.15;;;13.95;;
4021;SDS011;2025;48.260;16.432;2022-12-18T20:26:34;33.90;;;14.50;;
4021;SDS011;2025;48.260;16.432;2022-12-18T20:29:01;31.55;;;11.77;;
4021;SDS011;2025;48.260;16.432;2022-12-18T20:31:29;31.00;;;11.80;;
4021;SDS011;2025;48.260;16.432;2022-12-18T20:33:56;36.22;;;13.57;;
4021;SDS011;2025;48.260;16.432;2022-12-18T20:36:23;32.67;;;11.73;;
4021;SDS011;2025;48.260;16.432;2022-12-18T20:38:51;27.88;;;10.55;;
4021;SDS011;2025;48.260;16.432;2022-12-18T20:41:20;29.70;;;11.80;;
4021;SDS011;2025;48.260;16.432;2022-12-18T20:43:48;28.38;;;11.35;;
4021;SDS011;2025;48.260;16.432;2022-12-18T20:46:16;31.77;;;12.43;;
4021;SDS011;2025;48.260;16.432;2022-12-18T20:48:44;28.70;;;11.35;;
4021;SDS011;2025;48.260;16.432;2022-12-18T20:51:13;32.70;;;12.20;;
4021;SDS011;2025;48.260;16.432;2022-12-18T20:53:42;28.30;;;13.75;;
4021;SDS011;2025;48.260;16.432;2022-12-18T20:56:10;25.92;;;10.75;;
4021;SDS011;2025;48.260;16.432;2022-12-18T20:58:38;29.33;;;10.10;;
4021;SDS011;2025;48.260;16.432;2022-12-18T21:01:06;25.55;;;10.90;;
4021;SDS011;2025;48.260;16.432;2022-12-18T21:03:35;27.42;;;11.85;;
4021;SDS011;2025;48.260;16.432;2022-12-18T21:06:04;27.42;;;11.68;;
4021;SDS011;2025;48.260;16.432;2022-12-18T21:08:31;25.35;;;11.35;;
4021;SDS011;2025;48.260;16.432;2022-12-18T21:11:10;28.08;;;10.82;;
4021;SDS011;2025;48.260;16.432;2022-12-18T21:13:58;28.45;;;12.70;;
4021;SDS011;2025;48.260;16.432;2022-12-18T21:16:25;34.22;;;14.50;;
4021;SDS011;2025;48.260;16.432;2022-12-18T21:21:21;25.15;;;13.73;;
4021;SDS011;2025;48.260;16.432;2022-12-18T21:23:48;32.00;;;12.75;;
4021;SDS011;2025;48.260;16.432;2022-12-18T21:26:16;32.65;;;12.20;;
4021;SDS011;2025;48.260;16.432;2022-12-18T21:28:44;26.50;;;12.20;;
4021;SDS011;2025;48.260;16.432;2022-12-18T21:31:11;33.22;;;13.20;;
4021;SDS011;2025;48.260;16.432;2022-12-18T21:36:05;29.15;;;13.73;;
4021;SDS011;2025;48.260;16.432;2022-12-18T21:38:34;31.13;;;12.38;;
4021;SDS011;2025;48.260;16.432;2022-12-18T21:41:04;28.65;;;13.15;;
4021;SDS011;2025;48.260;16.432;2022-12-18T21:43:32;31.67;;;12.30;;
4021;SDS011;2025;48.260;16.432;2022-12-18T21:46:16;29.55;;;12.40;;
4021;SDS011;2025;48.260;16.432;2022-12-18T21:51:09;39.30;;;15.25;;
4021;SDS011;2025;48.260;16.432;2022-12-18T21:53:38;36.65;;;13.88;;
4021;SDS011;2025;48.260;16.432;2022-12-18T21:56:05;29.13;;;13.27;;
4021;SDS011;2025;48.260;16.432;2022-12-18T21:58:32;32.25;;;13.18;;
4021;SDS011;2025;48.260;16.432;2022-12-18T22:00:59;36.38;;;13.95;;
4021;SDS011;2025;48.260;16.432;2022-12-18T22:03:26;43.63;;;17.13;;
4021;SDS011;2025;48.260;16.432;2022-12-18T22:05:56;38.63;;;14.23;;
4021;SDS011;2025;48.260;16.432;2022-12-18T22:08:23;37.97;;;15.75;;
4021;SDS011;2025;48.260;16.432;2022-12-18T22:10:51;36.72;;;14.43;;
4021;SDS011;2025;48.260;16.432;2022-12-18T22:13:18;39.38;;;17.63;;
4021;SDS011;2025;48.260;16.432;2022-12-18T22:15:45;38.47;;;13.10;;
4021;SDS011;2025;48.260;16.432;2022-12-18T22:18:12;38.47;;;15.38;;
4021;SDS011;2025;48.260;16.432;2022-12-18T22:20:39;37.05;;;15.38;;
4021;SDS011;2025;48.260;16.432;2022-12-18T22:23:06;33.20;;;12.75;;
4021;SDS011;2025;48.260;16.432;2022-12-18T22:25:33;42.90;;;14.27;;
4021;SDS011;2025;48.260;16.432;2022-12-18T22:28:02;35.95;;;14.48;;
4021;SDS011;2025;48.260;16.432;2022-12-18T22:30:46;42.25;;;15.68;;
4021;SDS011;2025;48.260;16.432;2022-12-18T22:33:13;33.90;;;14.32;;
4021;SDS011;2025;48.260;16.432;2022-12-18T22:35:40;44.28;;;16.38;;
4021;SDS011;2025;48.260;16.432;2022-12-18T22:40:34;38.05;;;15.55;;
4021;SDS011;2025;48.260;16.432;2022-12-18T22:43:02;33.90;;;13.18;;
4021;SDS011;2025;48.260;16.432;2022-12-18T22:45:29;36.97;;;15.55;;
4021;SDS011;2025;48.260;16.432;2022-12-18T22:47:56;42.35;;;14.18;;
4021;SDS011;2025;48.260;16.432;2022-12-18T22:50:23;35.47;;;14.07;;
4021;SDS011;2025;48.260;16.432;2022-12-18T22:52:50;37.95;;;13.38;;
4021;SDS011;2025;48.260;16.432;2022-12-18T22:55:17;36.30;;;14.55;;
4021;SDS011;2025;48.260;16.432;2022-12-18T22:57:44;36.42;;;13.75;;
4021;SDS011;2025;48.260;16.432;2022-12-18T23:02:39;30.40;;;12.57;;
4021;SDS011;2025;48.260;16.432;2022-12-18T23:05:06;33.38;;;13.85;;
4021;SDS011;2025;48.260;16.432;2022-12-18T23:10:00;36.13;;;15.80;;
4021;SDS011;2025;48.260;16.432;2022-12-18T23:12:27;28.30;;;14.57;;
4021;SDS011;2025;48.260;16.432;2022-12-18T23:14:54;29.30;;;12.52;;
4021;SDS011;2025;48.260;16.432;2022-12-18T23:17:22;24.85;;;13.95;;
4021;SDS011;2025;48.260;16.432;2022-12-18T23:19:49;26.85;;;11.13;;
4021;SDS011;2025;48.260;16.432;2022-12-18T23:22:16;32.08;;;12.50;;
4021;SDS011;2025;48.260;16.432;2022-12-18T23:24:43;30.33;;;12.43;;
4021;SDS011;2025;48.260;16.432;2022-12-18T23:27:10;24.30;;;9.50;;
4021;SDS011;2025;48.260;16.432;2022-12-18T23:29:37;29.50;;;11.20;;
4021;SDS011;2025;48.260;16.432;2022-12-18T23:32:04;27.20;;;11.65;;
4021;SDS011;2025;48.260;16.432;2022-12-18T23:34:32;36.40;;;16.50;;
4021;SDS011;2025;48.260;16.432;2022-12-18T23:36:59;27.33;;;11.48;;
4021;SDS011;2025;48.260;16.432;2022-12-18T23:39:27;35.72;;;12.95;;
4021;SDS011;2025;48.260;16.432;2022-12-18T23:41:54;30.60;;;12.15;;
4021;SDS011;2025;48.260;16.432;2022-12-18T23:44:21;28.92;;;11.75;;
4021;SDS011;2025;48.260;16.432;2022-12-18T23:49:15;20.50;;;8.32;;
4021;SDS011;2025;48.260;16.432;2022-12-18T23:51:43;24.63;;;9.63;;
4021;SDS011;2025;48.260;16.432;2022-12-18T23:54:10;21.92;;;8.13;;
4021;SDS011;2025;48.260;16.432;2022-12-18T23:56:37;26.00;;;10.65;;
4021;SDS011;2025;48.260;16.432;2022-12-18T23:59:04;21.25;;;9.25;;
